createdAt,value
2023-01-26T00:04:43.037Z,39.20
2023-01-26T00:16:43.493Z,37.00
2023-01-26T00:28:43.954Z,35.40
2023-01-26T00:40:44.410Z,39.10
2023-01-26T00:52:44.830Z,40.20
2023-01-26T01:04:45.290Z,42.20
2023-01-26T01:16:45.739Z,39.20
2023-01-26T01:28:46.264Z,37.90
2023-01-26T01:40:46.673Z,37.30
2023-01-26T01:52:47.116Z,39.90
2023-01-26T02:04:47.587Z,38.60
2023-01-26T02:16:48.046Z,39.90
2023-01-26T02:28:48.489Z,37.70
2023-01-26T02:40:48.953Z,39.70
2023-01-26T02:52:49.353Z,40.70
2023-01-26T03:04:49.799Z,39.90
2023-01-26T03:16:50.266Z,47.40
2023-01-26T03:28:50.733Z,51.10
2023-01-26T03:40:51.165Z,57.40
2023-01-26T03:52:51.656Z,58.80
2023-01-26T04:04:52.104Z,56.60
2023-01-26T04:16:52.578Z,59.40
2023-01-26T04:28:52.956Z,59.60
2023-01-26T04:40:53.442Z,55.80
2023-01-26T04:52:53.904Z,51.70
2023-01-26T05:04:54.329Z,53.00
2023-01-26T05:16:54.759Z,55.90
2023-01-26T05:28:55.239Z,64.80
2023-01-26T05:40:55.714Z,75.40
2023-01-26T05:52:56.178Z,65.10
2023-01-26T06:04:56.611Z,65.20
2023-01-26T06:16:57.053Z,59.90
2023-01-26T06:28:57.446Z,60.00
2023-01-26T06:40:57.933Z,60.90
2023-01-26T06:52:58.360Z,63.10
2023-01-26T07:04:58.803Z,57.60
2023-01-26T07:16:59.294Z,66.80
2023-01-26T07:28:59.745Z,65.30
2023-01-26T07:41:00.330Z,63.30
2023-01-26T07:53:00.607Z,59.50
2023-01-26T08:05:01.053Z,54.00
2023-01-26T08:17:01.567Z,58.10
2023-01-26T08:29:02.000Z,54.70
2023-01-26T08:41:02.435Z,49.40
2023-01-26T08:53:02.910Z,46.00
2023-01-26T09:05:03.382Z,50.90
2023-01-26T09:17:03.779Z,42.80
2023-01-26T09:29:04.248Z,43.20
2023-01-26T09:41:04.739Z,41.60
2023-01-26T09:53:05.177Z,36.20
2023-01-26T10:05:05.611Z,35.60
2023-01-26T10:17:06.051Z,34.70
2023-01-26T10:29:06.503Z,33.30
2023-01-26T10:41:06.977Z,33.70
2023-01-26T10:53:07.413Z,30.70
2023-01-26T11:05:07.905Z,35.20
2023-01-26T11:17:08.292Z,33.10
2023-01-26T11:29:08.912Z,33.50
2023-01-26T11:41:09.207Z,34.60
2023-01-26T11:53:09.676Z,33.20
2023-01-26T12:05:10.624Z,35.20
2023-01-26T12:17:18.141Z,35.60
2023-01-26T12:29:11.035Z,36.50
2023-01-26T12:41:11.486Z,41.60
2023-01-26T12:53:11.928Z,41.90
2023-01-26T13:05:12.378Z,44.80
2023-01-26T13:17:12.846Z,64.10
2023-01-26T13:29:13.283Z,63.10
2023-01-26T13:41:13.729Z,64.50
2023-01-26T13:53:14.199Z,81.50
2023-01-26T14:05:14.626Z,69.90
2023-01-26T14:17:15.079Z,66.80
2023-01-26T14:29:15.569Z,62.60
2023-01-26T14:41:15.978Z,62.50
2023-01-26T14:53:16.429Z,59.90
2023-01-26T15:05:16.846Z,63.50
2023-01-26T15:17:17.324Z,62.60
2023-01-26T15:29:17.831Z,64.90
2023-01-26T15:41:18.248Z,68.60
2023-01-26T15:53:18.701Z,85.30
2023-01-26T16:05:19.168Z,87.20
2023-01-26T16:17:19.614Z,86.10
2023-01-26T16:29:20.080Z,90.40
2023-01-26T16:41:20.488Z,103.90
2023-01-26T16:53:20.959Z,112.60
2023-01-26T17:05:21.426Z,107.90
2023-01-26T17:17:21.840Z,82.00
2023-01-26T17:29:22.350Z,81.10
2023-01-26T17:41:22.787Z,81.70
2023-01-26T17:53:23.257Z,78.20
2023-01-26T18:05:23.683Z,82.20
2023-01-26T18:17:24.130Z,82.80
2023-01-26T18:29:24.571Z,95.20
2023-01-26T18:41:25.048Z,91.00
2023-01-26T18:53:25.463Z,88.60
2023-01-26T19:05:25.893Z,86.20
2023-01-26T19:17:26.396Z,77.30
2023-01-26T19:29:26.874Z,85.50
2023-01-26T19:41:27.314Z,74.90
2023-01-26T19:53:27.723Z,72.90
2023-01-26T20:05:28.215Z,78.50
2023-01-26T20:17:28.677Z,68.20
2023-01-26T20:29:29.071Z,64.20
2023-01-26T20:41:29.605Z,61.50
2023-01-26T20:53:30.065Z,63.90
2023-01-26T21:05:30.493Z,59.70
2023-01-26T21:17:30.942Z,62.50
2023-01-26T21:29:31.375Z,58.80
2023-01-26T21:41:31.863Z,61.40
2023-01-26T21:53:32.262Z,56.80
2023-01-26T22:05:32.763Z,58.60
2023-01-26T22:17:33.190Z,46.60
2023-01-26T22:29:33.628Z,26.80
2023-01-26T22:41:34.087Z,24.90
2023-01-26T22:53:34.523Z,27.30
